Time;durP1;ratioP1;P1;durP2;ratioP2;P2;SDS_P1;SDS_P2;PMS_P1;PMS_P2;Temp;Humidity;BMP_temperature;BMP_pressure;BME280_temperature;BME280_humidity;BME280_pressure;Samples;Min_cycle;Max_cycle;Signal;HPM_P1;HPM_P2
2022/07/31 00:01:45;;;;;;;;;;;19.40;99.90;;;;;;5073359;28;20007;-55
2022/07/31 00:04:10;;;;;;;;;;;19.40;99.90;;;;;;5073965;28;20375;-52
2022/07/31 00:06:36;;;;;;;;;;;19.30;99.90;;;;;;5074449;28;19934;-51
2022/07/31 00:09:02;;;;;;;;;;;19.30;99.90;;;;;;5073069;28;20709;-51
2022/07/31 00:11:27;;;;;;;;;;;19.30;99.90;;;;;;5075715;28;20062;-52
2022/07/31 00:13:53;;;;;;;;;;;19.30;99.90;;;;;;5074979;28;19916;-53
2022/07/31 00:16:18;;;;;;;;;;;19.30;99.90;;;;;;5080784;28;19912;-51
2022/07/31 00:18:44;;;;;;;;;;;19.30;99.90;;;;;;5080933;28;19912;-55
2022/07/31 00:21:09;;;;;;;;;;;19.30;99.90;;;;;;5073208;28;19921;-49
2022/07/31 00:23:35;;;;;;;;;;;19.30;99.90;;;;;;5073411;28;19966;-50
2022/07/31 00:26:00;;;;;;;;;;;19.30;99.90;;;;;;5074409;28;20439;-53
2022/07/31 00:28:26;;;;;;;;;;;19.30;99.90;;;;;;5073148;28;19916;-51
2022/07/31 00:30:51;;;;;;;;;;;19.30;99.90;;;;;;5077964;28;20304;-52
2022/07/31 00:33:17;;;;;;;;;;;19.30;99.90;;;;;;5093744;28;20007;-52
2022/07/31 00:35:42;;;;;;;;;;;19.30;99.90;;;;;;5074267;28;19919;-50
2022/07/31 00:38:09;;;;;;;;;;;19.20;99.90;;;;;;5072863;28;19956;-54
2022/07/31 00:40:35;;;;;;;;;;;19.20;99.90;;;;;;5090382;28;19982;-54
2022/07/31 00:43:00;;;;;;;;;;;19.10;99.90;;;;;;5094437;28;19983;-51
2022/07/31 00:45:26;;;;;;;;;;;18.90;99.90;;;;;;5088810;28;20422;-50
2022/07/31 00:47:51;;;;;;;;;;;18.90;99.90;;;;;;5091360;28;20303;-50
2022/07/31 00:50:17;;;;;;;;;;;18.90;99.90;;;;;;5088723;28;19916;-50
2022/07/31 00:52:44;;;;;;;;;;;18.90;99.90;;;;;;5074034;28;19912;-50
2022/07/31 00:55:09;;;;;;;;;;;18.90;99.90;;;;;;5087291;28;20311;-54
2022/07/31 00:57:35;;;;;;;;;;;18.90;99.90;;;;;;5092726;28;19915;-52
2022/07/31 01:00:00;;;;;;;;;;;19.00;99.90;;;;;;5079005;28;19927;-54
2022/07/31 01:02:26;;;;;;;;;;;19.00;99.90;;;;;;5072031;28;20287;-50
2022/07/31 01:04:52;;;;;;;;;;;19.00;99.90;;;;;;5073412;28;19917;-54
2022/07/31 01:07:17;;;;;;;;;;;18.90;99.90;;;;;;5072018;28;19916;-50
2022/07/31 01:09:46;;;;;;;;;;;18.90;99.90;;;;;;5081720;28;19922;-52
2022/07/31 01:12:15;;;;;;;;;;;18.90;99.90;;;;;;5080028;28;20299;-51
2022/07/31 01:14:44;;;;;;;;;;;18.80;99.90;;;;;;5072424;28;19920;-50
2022/07/31 01:17:11;;;;;;;;;;;18.60;99.90;;;;;;5071636;28;19916;-54
2022/07/31 01:19:41;;;;;;;;;;;18.60;99.90;;;;;;5073277;28;19947;-50
2022/07/31 01:22:25;;;;;;;;;;;18.60;99.90;;;;;;5081831;28;19916;-54
2022/07/31 01:24:56;;;;;;;;;;;18.60;99.90;;;;;;5072253;28;19912;-51
2022/07/31 01:27:29;;;;;;;;;;;18.60;99.90;;;;;;5079627;28;19912;-53
2022/07/31 01:29:58;;;;;;;;;;;18.50;99.90;;;;;;5092214;28;19908;-49
2022/07/31 01:32:24;;;;;;;;;;;18.60;99.90;;;;;;5083977;28;20003;-52
2022/07/31 01:34:50;;;;;;;;;;;18.50;99.90;;;;;;5072170;28;20364;-51
2022/07/31 01:37:19;;;;;;;;;;;18.60;99.90;;;;;;5077393;28;19962;-49
2022/07/31 01:39:51;;;;;;;;;;;18.60;99.90;;;;;;5092372;28;20307;-50
2022/07/31 01:42:18;;;;;;;;;;;18.50;99.90;;;;;;5085591;28;19936;-54
2022/07/31 01:44:46;;;;;;;;;;;18.40;99.90;;;;;;5071428;28;19947;-51
2022/07/31 01:47:15;;;;;;;;;;;18.30;99.90;;;;;;5076282;28;19916;-50
2022/07/31 01:49:41;;;;;;;;;;;18.30;99.90;;;;;;5092070;28;20023;-53
2022/07/31 01:52:08;;;;;;;;;;;18.30;99.90;;;;;;5088357;28;19912;-50
2022/07/31 01:54:35;;;;;;;;;;;18.30;99.90;;;;;;5085292;28;19916;-50
2022/07/31 01:57:02;;;;;;;;;;;18.30;99.90;;;;;;5071798;28;19920;-52
2022/07/31 01:59:29;;;;;;;;;;;18.30;99.90;;;;;;5072725;28;19920;-50
2022/07/31 02:01:56;;;;;;;;;;;18.40;99.90;;;;;;5092158;28;19916;-50
2022/07/31 02:04:22;;;;;;;;;;;18.40;99.90;;;;;;5090938;28;19978;-52
2022/07/31 02:06:51;;;;;;;;;;;18.40;99.90;;;;;;5071221;28;19951;-52
2022/07/31 02:09:17;;;;;;;;;;;18.40;99.90;;;;;;5071052;28;20005;-55
2022/07/31 02:11:44;;;;;;;;;;;18.40;99.90;;;;;;5082138;28;19925;-51
2022/07/31 02:14:09;;;;;;;;;;;18.40;99.90;;;;;;5062258;28;20415;-53
2022/07/31 02:16:36;;;;;;;;;;;18.40;99.90;;;;;;5088709;28;20004;-55
2022/07/31 02:19:04;;;;;;;;;;;18.30;99.90;;;;;;5092227;28;20013;-51
2022/07/31 02:21:29;;;;;;;;;;;18.20;99.90;;;;;;5074345;28;19927;-50
2022/07/31 02:23:56;;;;;;;;;;;18.20;99.90;;;;;;5070989;28;20617;-49
2022/07/31 02:26:22;;;;;;;;;;;18.10;99.90;;;;;;5071759;28;19908;-50
2022/07/31 02:28:47;;;;;;;;;;;18.20;99.90;;;;;;5071150;28;19928;-52
2022/07/31 02:31:14;;;;;;;;;;;18.10;99.90;;;;;;5071039;28;20402;-50
2022/07/31 02:33:41;;;;;;;;;;;18.10;99.90;;;;;;5083340;28;20502;-49
2022/07/31 02:36:07;;;;;;;;;;;18.10;99.90;;;;;;5090806;28;20368;-49
2022/07/31 02:38:33;;;;;;;;;;;18.10;99.90;;;;;;5079779;28;19908;-50
2022/07/31 02:41:01;;;;;;;;;;;18.10;99.90;;;;;;5071440;28;19924;-51
2022/07/31 02:43:27;;;;;;;;;;;18.00;99.90;;;;;;5085031;28;19920;-49
2022/07/31 02:45:53;;;;;;;;;;;18.00;99.90;;;;;;5070804;28;19912;-51
2022/07/31 02:48:19;;;;;;;;;;;18.00;99.90;;;;;;5085324;28;19912;-49
2022/07/31 02:50:45;;;;;;;;;;;18.00;99.90;;;;;;5091236;28;19965;-53
2022/07/31 02:53:11;;;;;;;;;;;18.00;99.90;;;;;;5078027;28;19913;-53
2022/07/31 02:55:37;;;;;;;;;;;18.00;99.90;;;;;;5070990;28;19923;-54
2022/07/31 02:58:03;;;;;;;;;;;18.00;99.90;;;;;;5079918;28;19927;-50
2022/07/31 03:00:29;;;;;;;;;;;18.00;99.90;;;;;;5072932;28;19925;-52
2022/07/31 03:02:55;;;;;;;;;;;18.10;99.90;;;;;;5082645;28;19951;-51
2022/07/31 03:05:21;;;;;;;;;;;18.10;99.90;;;;;;5090329;28;19916;-50
2022/07/31 03:07:47;;;;;;;;;;;18.00;99.90;;;;;;5080353;28;19927;-52
2022/07/31 03:10:12;;;;;;;;;;;18.00;99.90;;;;;;5070767;28;19919;-52
2022/07/31 03:12:43;;;;;;;;;;;18.00;99.90;;;;;;5070597;28;20686;-51
2022/07/31 03:15:11;;;;;;;;;;;18.00;99.90;;;;;;5070272;28;20466;-53
2022/07/31 03:17:37;;;;;;;;;;;18.00;99.90;;;;;;5077944;28;19912;-49
2022/07/31 03:20:04;;;;;;;;;;;18.00;99.90;;;;;;5090652;28;20474;-53
2022/07/31 03:22:29;;;;;;;;;;;18.00;99.90;;;;;;5083472;28;19920;-49
2022/07/31 03:24:56;;;;;;;;;;;18.00;99.90;;;;;;5070913;28;20368;-51
2022/07/31 03:27:22;;;;;;;;;;;18.00;99.90;;;;;;5070073;28;19923;-52
2022/07/31 03:29:48;;;;;;;;;;;18.00;99.90;;;;;;5075918;28;19916;-49
2022/07/31 03:32:13;;;;;;;;;;;17.90;99.90;;;;;;5074126;28;19974;-50
2022/07/31 03:34:39;;;;;;;;;;;17.90;99.90;;;;;;5079494;28;19919;-51
2022/07/31 03:37:04;;;;;;;;;;;17.90;99.90;;;;;;5088957;28;20438;-54
2022/07/31 03:39:30;;;;;;;;;;;18.00;99.90;;;;;;5081561;28;20354;-55
2022/07/31 03:41:56;;;;;;;;;;;17.90;99.90;;;;;;5070362;28;20349;-54
2022/07/31 03:44:22;;;;;;;;;;;17.70;99.90;;;;;;5070410;28;20003;-50
2022/07/31 03:46:47;;;;;;;;;;;17.70;99.90;;;;;;5069672;28;19950;-49
2022/07/31 03:49:13;;;;;;;;;;;17.70;99.90;;;;;;5081975;28;19912;-49
2022/07/31 03:51:39;;;;;;;;;;;17.70;99.90;;;;;;5093226;28;19912;-53
2022/07/31 03:54:04;;;;;;;;;;;17.70;99.90;;;;;;5079574;28;20395;-54
2022/07/31 03:56:31;;;;;;;;;;;17.80;99.90;;;;;;5073119;28;19974;-50
2022/07/31 03:58:57;;;;;;;;;;;17.90;99.90;;;;;;5073827;28;20399;-55
2022/07/31 04:01:22;;;;;;;;;;;17.90;99.90;;;;;;5074305;28;19921;-51
2022/07/31 04:03:48;;;;;;;;;;;18.00;99.90;;;;;;5073760;28;20414;-55
2022/07/31 04:06:13;;;;;;;;;;;18.10;99.90;;;;;;5073521;28;19920;-53
2022/07/31 04:08:39;;;;;;;;;;;18.10;99.90;;;;;;5072644;28;19970;-50
2022/07/31 04:11:05;;;;;;;;;;;18.20;99.90;;;;;;5073475;28;19917;-50
2022/07/31 04:13:30;;;;;;;;;;;18.20;99.90;;;;;;5073230;28;19916;-51
2022/07/31 04:15:56;;;;;;;;;;;18.20;99.90;;;;;;5074295;28;19999;-54
2022/07/31 04:18:21;;;;;;;;;;;18.10;99.90;;;;;;5092809;28;19920;-49
2022/07/31 04:20:47;;;;;;;;;;;18.20;99.90;;;;;;5092094;28;20279;-48
2022/07/31 04:23:12;;;;;;;;;;;18.20;99.90;;;;;;5072887;28;20420;-51
2022/07/31 04:25:38;;;;;;;;;;;18.30;99.90;;;;;;5073347;28;19913;-52
2022/07/31 04:28:03;;;;;;;;;;;18.40;99.90;;;;;;5091795;28;19920;-50
2022/07/31 04:30:29;;;;;;;;;;;18.40;99.90;;;;;;5092759;28;19912;-49
2022/07/31 04:32:54;;;;;;;;;;;18.50;99.90;;;;;;5076251;28;19920;-50
2022/07/31 04:35:20;;;;;;;;;;;18.50;99.90;;;;;;5083404;28;20311;-51
2022/07/31 04:37:46;;;;;;;;;;;18.50;99.90;;;;;;5071885;28;19929;-49
2022/07/31 04:40:12;;;;;;;;;;;18.50;99.90;;;;;;5073112;28;19924;-50
2022/07/31 04:42:37;;;;;;;;;;;18.40;99.90;;;;;;5072532;28;19916;-49
2022/07/31 04:45:03;;;;;;;;;;;18.50;99.90;;;;;;5071710;28;20368;-53
2022/07/31 04:47:28;;;;;;;;;;;18.30;99.90;;;;;;5072338;28;19916;-52
2022/07/31 04:49:54;;;;;;;;;;;17.80;99.90;;;;;;5074732;28;20021;-51
2022/07/31 04:52:19;;;;;;;;;;;17.90;99.90;;;;;;5071818;28;19955;-54
2022/07/31 04:54:45;;;;;;;;;;;18.00;99.90;;;;;;5070109;28;20350;-52
2022/07/31 04:57:10;;;;;;;;;;;18.10;99.90;;;;;;5071207;28;20398;-54
2022/07/31 04:59:36;;;;;;;;;;;18.20;99.90;;;;;;5072335;28;20391;-51
2022/07/31 05:02:01;;;;;;;;;;;18.20;99.90;;;;;;5071534;28;19990;-51
2022/07/31 05:04:27;;;;;;;;;;;18.30;99.90;;;;;;5078557;28;19912;-54
2022/07/31 05:06:53;;;;;;;;;;;18.40;99.90;;;;;;5076273;28;19924;-54
2022/07/31 05:09:21;;;;;;;;;;;18.50;99.90;;;;;;5072602;28;19908;-54
2022/07/31 05:11:47;;;;;;;;;;;18.40;99.90;;;;;;5075240;28;19981;-51
2022/07/31 05:14:14;;;;;;;;;;;18.40;99.90;;;;;;5069654;28;20404;-50
2022/07/31 05:16:39;;;;;;;;;;;18.50;99.90;;;;;;5072446;28;19920;-53
2022/07/31 05:19:06;;;;;;;;;;;18.60;99.90;;;;;;5072499;28;20398;-51
2022/07/31 05:21:31;;;;;;;;;;;18.70;99.90;;;;;;5072468;28;19924;-49
2022/07/31 05:23:58;;;;;;;;;;;18.80;99.90;;;;;;5072070;28;19921;-52
2022/07/31 05:26:24;;;;;;;;;;;18.70;99.90;;;;;;5072919;28;19919;-51
2022/07/31 05:28:50;;;;;;;;;;;18.70;99.90;;;;;;5072420;28;19966;-52
2022/07/31 05:31:16;;;;;;;;;;;18.90;99.90;;;;;;5070887;28;19916;-53
2022/07/31 05:33:42;;;;;;;;;;;19.00;99.90;;;;;;5070461;28;19909;-48
2022/07/31 05:36:08;;;;;;;;;;;19.00;99.90;;;;;;5071242;28;19912;-52
2022/07/31 05:38:33;;;;;;;;;;;18.80;99.90;;;;;;5071194;28;20372;-51
2022/07/31 05:40:59;;;;;;;;;;;18.90;99.90;;;;;;5071420;28;19918;-49
2022/07/31 05:43:24;;;;;;;;;;;19.00;99.90;;;;;;5078301;28;19958;-47
2022/07/31 05:45:50;;;;;;;;;;;19.10;99.90;;;;;;5071767;28;19920;-50
2022/07/31 05:48:16;;;;;;;;;;;19.10;99.90;;;;;;5072108;28;20353;-52
2022/07/31 05:50:42;;;;;;;;;;;19.20;99.90;;;;;;5071648;28;19908;-48
2022/07/31 05:53:10;;;;;;;;;;;19.30;99.90;;;;;;5079866;28;19916;-49
2022/07/31 05:55:36;;;;;;;;;;;19.40;99.90;;;;;;5070725;28;19928;-54
2022/07/31 05:58:02;;;;;;;;;;;19.40;99.90;;;;;;5071032;28;19984;-50
2022/07/31 06:00:29;;;;;;;;;;;19.40;99.90;;;;;;5071795;28;19928;-51
2022/07/31 06:02:55;;;;;;;;;;;19.40;99.90;;;;;;5077866;28;19999;-51
2022/07/31 06:05:21;;;;;;;;;;;19.50;99.90;;;;;;5083705;28;20443;-46
2022/07/31 06:07:46;;;;;;;;;;;19.70;99.90;;;;;;5081951;28;19916;-53
2022/07/31 06:10:12;;;;;;;;;;;19.70;99.90;;;;;;5075556;28;19920;-51
2022/07/31 06:12:37;;;;;;;;;;;19.70;99.90;;;;;;5070841;28;19919;-55
2022/07/31 06:15:03;;;;;;;;;;;19.80;99.90;;;;;;5076259;28;20294;-56
2022/07/31 06:17:29;;;;;;;;;;;19.90;99.90;;;;;;5070100;28;19908;-53
2022/07/31 06:19:54;;;;;;;;;;;19.80;99.90;;;;;;5078433;28;19920;-53
2022/07/31 06:22:20;;;;;;;;;;;19.70;99.90;;;;;;5092623;28;19944;-46
2022/07/31 06:24:45;;;;;;;;;;;19.70;99.90;;;;;;5086533;28;19920;-50
2022/07/31 06:27:11;;;;;;;;;;;19.90;99.90;;;;;;5071166;28;20311;-49
2022/07/31 06:29:36;;;;;;;;;;;20.00;99.90;;;;;;5076556;28;19942;-50
2022/07/31 06:32:02;;;;;;;;;;;20.00;99.90;;;;;;5092068;28;19916;-47
2022/07/31 06:34:27;;;;;;;;;;;20.10;99.90;;;;;;5071382;28;19924;-52
2022/07/31 06:36:53;;;;;;;;;;;20.20;99.90;;;;;;5071344;28;19958;-51
2022/07/31 06:39:18;;;;;;;;;;;20.10;99.90;;;;;;5071118;28;20438;-48
2022/07/31 06:41:46;;;;;;;;;;;20.10;99.90;;;;;;5075659;28;20030;-46
2022/07/31 06:44:12;;;;;;;;;;;20.20;99.90;;;;;;5071067;28;19913;-51
2022/07/31 06:46:38;;;;;;;;;;;20.10;99.90;;;;;;5076460;28;19912;-52
2022/07/31 06:49:04;;;;;;;;;;;20.10;99.90;;;;;;5091749;28;19912;-53
2022/07/31 06:51:29;;;;;;;;;;;20.20;99.90;;;;;;5082674;28;19919;-53
2022/07/31 06:53:55;;;;;;;;;;;20.30;99.90;;;;;;5070936;28;20326;-46
2022/07/31 06:56:21;;;;;;;;;;;20.30;99.90;;;;;;5076770;28;20642;-48
2022/07/31 06:58:46;;;;;;;;;;;20.00;99.90;;;;;;5091302;28;19908;-47
2022/07/31 07:01:12;;;;;;;;;;;20.10;99.90;;;;;;5079411;28;19928;-55
2022/07/31 07:03:38;;;;;;;;;;;20.10;99.90;;;;;;5070808;28;19913;-50
2022/07/31 07:06:04;;;;;;;;;;;20.00;99.90;;;;;;5068618;28;20307;-54
2022/07/31 07:08:29;;;;;;;;;;;20.10;99.90;;;;;;5069392;28;19919;-50
2022/07/31 07:10:55;;;;;;;;;;;20.00;99.90;;;;;;5070341;28;20007;-49
2022/07/31 07:13:20;;;;;;;;;;;19.90;99.90;;;;;;5069724;28;20387;-48
2022/07/31 07:15:46;;;;;;;;;;;20.00;99.90;;;;;;5070895;28;19916;-53
2022/07/31 07:18:12;;;;;;;;;;;20.10;99.90;;;;;;5067469;28;19920;-47
2022/07/31 07:20:37;;;;;;;;;;;20.00;99.90;;;;;;5066908;28;20368;-49
2022/07/31 07:23:03;;;;;;;;;;;20.00;99.90;;;;;;5070799;28;19920;-50
2022/07/31 07:25:29;;;;;;;;;;;20.20;99.90;;;;;;5071198;28;19908;-50
2022/07/31 07:27:55;;;;;;;;;;;20.30;99.90;;;;;;5075586;28;19913;-52
2022/07/31 07:30:27;;;;;;;;;;;20.30;99.90;;;;;;5077574;28;19960;-52
2022/07/31 07:32:53;;;;;;;;;;;20.60;99.90;;;;;;5088719;28;19957;-52
2022/07/31 07:35:18;;;;;;;;;;;20.70;99.90;;;;;;5090297;28;20353;-52
2022/07/31 07:37:44;;;;;;;;;;;20.80;99.90;;;;;;5076690;28;19916;-50
2022/07/31 07:40:09;;;;;;;;;;;20.70;99.90;;;;;;5081429;28;19938;-54
2022/07/31 07:42:35;;;;;;;;;;;20.80;99.90;;;;;;5096073;28;19942;-51
2022/07/31 07:45:00;;;;;;;;;;;21.10;99.90;;;;;;5081217;28;19920;-48
2022/07/31 07:47:26;;;;;;;;;;;21.30;99.90;;;;;;5075045;28;19920;-47
2022/07/31 07:49:52;;;;;;;;;;;21.30;99.90;;;;;;5077783;28;19912;-55
2022/07/31 07:52:17;;;;;;;;;;;21.40;99.90;;;;;;5079325;28;20341;-49
2022/07/31 07:54:43;;;;;;;;;;;21.50;99.90;;;;;;5074658;28;19927;-52
2022/07/31 07:57:12;;;;;;;;;;;21.70;99.90;;;;;;5095086;28;19916;-55
2022/07/31 07:59:38;;;;;;;;;;;21.80;99.90;;;;;;5093674;28;19916;-55
2022/07/31 08:02:03;;;;;;;;;;;21.90;99.90;;;;;;5076689;28;19912;-52
2022/07/31 08:04:29;;;;;;;;;;;21.70;99.90;;;;;;5076535;28;19920;-49
2022/07/31 08:06:58;;;;;;;;;;;21.80;99.90;;;;;;5075888;28;19912;-52
2022/07/31 08:09:24;;;;;;;;;;;21.80;99.90;;;;;;5094638;28;19912;-51
2022/07/31 08:11:50;;;;;;;;;;;21.80;99.90;;;;;;5084980;28;19916;-50
2022/07/31 08:14:15;;;;;;;;;;;21.90;99.90;;;;;;5081512;28;19958;-51
2022/07/31 08:16:41;;;;;;;;;;;22.10;99.90;;;;;;5073956;28;19916;-49
2022/07/31 08:19:07;;;;;;;;;;;22.00;99.90;;;;;;5074272;28;19976;-48
2022/07/31 08:21:34;;;;;;;;;;;22.20;99.90;;;;;;5073934;28;20444;-49
2022/07/31 08:23:59;;;;;;;;;;;22.00;99.90;;;;;;5085666;28;19908;-50
2022/07/31 08:26:25;;;;;;;;;;;21.90;99.90;;;;;;5072758;28;19924;-50
2022/07/31 08:28:51;;;;;;;;;;;22.10;99.90;;;;;;5088940;28;19920;-47
2022/07/31 08:31:17;;;;;;;;;;;22.20;99.90;;;;;;5083719;28;19913;-49
2022/07/31 08:33:43;;;;;;;;;;;22.20;99.90;;;;;;5088878;28;19954;-51
2022/07/31 08:36:08;;;;;;;;;;;22.30;99.90;;;;;;5082411;28;19913;-53
2022/07/31 08:38:35;;;;;;;;;;;22.30;99.90;;;;;;5063110;28;19921;-50
2022/07/31 08:41:00;;;;;;;;;;;22.30;99.90;;;;;;5072083;28;19920;-52
2022/07/31 08:43:26;;;;;;;;;;;22.40;99.90;;;;;;5079323;28;19926;-54
2022/07/31 08:45:52;;;;;;;;;;;22.30;99.90;;;;;;5071471;28;19917;-51
2022/07/31 08:48:20;;;;;;;;;;;22.50;99.90;;;;;;5071005;28;20368;-52
2022/07/31 08:50:46;;;;;;;;;;;22.60;99.90;;;;;;5075740;28;20325;-48
2022/07/31 08:53:14;;;;;;;;;;;22.60;99.60;;;;;;5073559;28;19956;-53
2022/07/31 08:55:39;;;;;;;;;;;22.60;99.50;;;;;;5067914;28;19917;-48
2022/07/31 08:58:05;;;;;;;;;;;22.70;99.40;;;;;;5073223;28;20049;-50
2022/07/31 09:00:32;;;;;;;;;;;22.70;99.70;;;;;;5074391;28;19924;-52
2022/07/31 09:02:57;;;;;;;;;;;22.70;99.80;;;;;;5074102;28;20303;-51
2022/07/31 09:05:23;;;;;;;;;;;22.90;99.20;;;;;;5072355;28;19912;-52
2022/07/31 09:07:49;;;;;;;;;;;23.00;99.10;;;;;;5071992;28;19932;-54
2022/07/31 09:10:22;;;;;;;;;;;23.20;98.50;;;;;;5072468;28;19912;-51
2022/07/31 09:12:47;;;;;;;;;;;23.20;97.80;;;;;;5070148;28;19912;-50
2022/07/31 09:15:23;;;;;;;;;;;23.10;97.70;;;;;;5071511;28;19921;-51
2022/07/31 09:17:49;;;;;;;;;;;23.30;97.60;;;;;;5071957;28;20379;-48
2022/07/31 09:20:25;;;;;;;;;;;23.50;97.20;;;;;;5070136;28;19965;-50
2022/07/31 09:23:06;;;;;;;;;;;23.70;97.00;;;;;;5071947;28;19916;-52
2022/07/31 09:25:32;;;;;;;;;;;23.80;96.20;;;;;;5068609;28;19912;-48
2022/07/31 09:28:02;;;;;;;;;;;23.80;95.60;;;;;;5068544;28;20021;-53
2022/07/31 09:30:27;;;;;;;;;;;23.70;95.60;;;;;;5066050;28;19912;-57
2022/07/31 09:32:53;;;;;;;;;;;23.90;95.30;;;;;;5071719;28;19916;-47
2022/07/31 09:35:18;;;;;;;;;;;24.00;95.10;;;;;;5071053;28;19920;-53
2022/07/31 09:37:47;;;;;;;;;;;24.00;95.00;;;;;;5069634;28;20351;-55
2022/07/31 09:40:13;;;;;;;;;;;24.00;94.80;;;;;;5064102;28;19946;-53
2022/07/31 09:42:42;;;;;;;;;;;23.90;93.50;;;;;;5071390;28;20353;-51
2022/07/31 09:45:24;;;;;;;;;;;23.70;93.80;;;;;;5071636;28;19960;-48
2022/07/31 09:48:04;;;;;;;;;;;23.70;94.20;;;;;;5068152;28;20224;-49
2022/07/31 09:50:30;;;;;;;;;;;23.80;93.90;;;;;;5070714;28;19913;-48
2022/07/31 09:52:59;;;;;;;;;;;23.90;93.60;;;;;;5071550;28;19919;-47
2022/07/31 09:55:25;;;;;;;;;;;24.10;93.10;;;;;;5066512;28;19956;-52
2022/07/31 09:57:54;;;;;;;;;;;24.10;92.40;;;;;;5070204;28;19998;-53
2022/07/31 10:00:21;;;;;;;;;;;24.00;92.50;;;;;;5068664;28;19916;-49
2022/07/31 10:02:47;;;;;;;;;;;24.20;91.90;;;;;;5073720;28;19915;-55
2022/07/31 10:05:13;;;;;;;;;;;24.10;91.20;;;;;;5070585;28;20195;-48
2022/07/31 10:07:40;;;;;;;;;;;24.20;90.80;;;;;;5076111;28;19951;-52
2022/07/31 10:10:06;;;;;;;;;;;24.20;91.00;;;;;;5089366;28;20335;-50
2022/07/31 10:12:32;;;;;;;;;;;24.10;91.00;;;;;;5067462;28;19932;-51
2022/07/31 10:15:01;;;;;;;;;;;24.40;91.70;;;;;;5071668;28;20269;-52
2022/07/31 10:17:31;;;;;;;;;;;24.30;90.60;;;;;;5071667;28;20408;-54
2022/07/31 10:19:59;;;;;;;;;;;24.50;90.30;;;;;;5070321;28;19959;-48
2022/07/31 10:22:26;;;;;;;;;;;24.50;89.30;;;;;;5072236;28;19952;-55
2022/07/31 10:24:52;;;;;;;;;;;24.70;87.00;;;;;;5076631;28;19927;-54
2022/07/31 10:27:18;;;;;;;;;;;24.60;85.80;;;;;;5092065;28;19916;-53
2022/07/31 10:29:44;;;;;;;;;;;24.80;83.30;;;;;;5074596;28;19970;-56
2022/07/31 10:32:09;;;;;;;;;;;25.00;84.30;;;;;;5070536;28;19952;-53
2022/07/31 10:34:36;;;;;;;;;;;25.20;81.60;;;;;;5058822;28;19909;-49
2022/07/31 10:37:17;;;;;;;;;;;25.20;81.60;;;;;;5058767;28;19920;-54
2022/07/31 10:39:43;;;;;;;;;;;25.20;81.80;;;;;;5060642;28;19916;-49
2022/07/31 10:42:18;;;;;;;;;;;25.10;80.20;;;;;;5071536;28;19916;-49
2022/07/31 10:44:54;;;;;;;;;;;25.00;80.70;;;;;;5071847;28;19962;-48
2022/07/31 10:47:20;;;;;;;;;;;25.00;80.10;;;;;;5066450;28;19912;-49
2022/07/31 10:49:47;;;;;;;;;;;25.10;80.80;;;;;;5068767;28;19923;-49
2022/07/31 10:52:14;;;;;;;;;;;25.10;79.80;;;;;;5072559;28;19984;-50
2022/07/31 10:54:44;;;;;;;;;;;25.20;78.80;;;;;;5091102;28;20367;-53
2022/07/31 10:57:42;;;;;;;;;;;25.20;77.60;;;;;;5075432;28;19921;-52
2022/07/31 11:00:18;;;;;;;;;;;25.20;77.30;;;;;;5071852;28;20407;-53
2022/07/31 11:02:44;;;;;;;;;;;25.30;76.80;;;;;;5079729;28;20378;-50
2022/07/31 11:05:09;;;;;;;;;;;25.40;76.70;;;;;;5075011;28;19908;-51
2022/07/31 11:07:35;;;;;;;;;;;25.60;76.00;;;;;;5075395;28;19912;-54
2022/07/31 11:10:07;;;;;;;;;;;25.60;75.10;;;;;;5074924;28;20280;-48
2022/07/31 11:12:33;;;;;;;;;;;25.60;75.00;;;;;;5075135;28;19908;-51
2022/07/31 11:14:58;;;;;;;;;;;25.40;74.10;;;;;;5080643;28;19982;-50
2022/07/31 11:17:29;;;;;;;;;;;25.50;74.60;;;;;;5074618;28;19920;-55
2022/07/31 11:19:55;;;;;;;;;;;25.50;74.20;;;;;;5071324;28;20007;-49
2022/07/31 11:22:20;;;;;;;;;;;25.60;73.50;;;;;;5072072;28;19963;-51
2022/07/31 11:24:57;;;;;;;;;;;25.60;73.60;;;;;;5075606;28;19912;-49
2022/07/31 11:27:32;;;;;;;;;;;25.40;73.10;;;;;;5074670;28;19909;-51
2022/07/31 11:30:05;;;;;;;;;;;25.60;73.70;;;;;;5092454;28;20296;-54
2022/07/31 11:32:30;;;;;;;;;;;25.90;74.70;;;;;;5095739;28;19919;-49
2022/07/31 11:34:56;;;;;;;;;;;26.10;75.20;;;;;;5083318;28;19979;-50
2022/07/31 11:37:25;;;;;;;;;;;26.10;76.10;;;;;;5079151;28;19920;-52
2022/07/31 11:39:52;;;;;;;;;;;26.00;75.30;;;;;;5054583;28;19909;-49
2022/07/31 11:42:18;;;;;;;;;;;26.00;76.80;;;;;;5084363;28;19970;-55
2022/07/31 11:44:44;;;;;;;;;;;26.00;77.60;;;;;;5081425;28;19908;-52
2022/07/31 11:47:12;;;;;;;;;;;25.90;78.10;;;;;;5086914;28;19919;-52
2022/07/31 11:49:38;;;;;;;;;;;26.10;77.30;;;;;;5095407;28;19915;-54
2022/07/31 11:52:04;;;;;;;;;;;25.90;79.00;;;;;;5083224;28;20384;-50
2022/07/31 11:54:38;;;;;;;;;;;25.90;78.30;;;;;;5074054;28;19908;-57
2022/07/31 11:57:14;;;;;;;;;;;;;;;;;;;;;
2022/07/31 11:59:40;;;;;;;;;;;26.20;77.50;;;;;;5094506;28;20281;-51
2022/07/31 12:02:09;;;;;;;;;;;26.40;77.10;;;;;;5094291;28;19942;-56
2022/07/31 12:04:35;;;;;;;;;;;26.60;74.70;;;;;;5095504;28;20425;-52
2022/07/31 12:07:01;;;;;;;;;;;26.70;73.20;;;;;;5087055;28;19923;-50
2022/07/31 12:09:27;;;;;;;;;;;26.70;72.80;;;;;;5074829;28;20337;-52
2022/07/31 12:11:53;;;;;;;;;;;26.90;71.60;;;;;;5074193;28;19913;-54
2022/07/31 12:14:35;;;;;;;;;;;26.80;71.10;;;;;;5074630;28;20395;-52
2022/07/31 12:17:02;;;;;;;;;;;26.80;71.90;;;;;;5085257;28;19918;-53
2022/07/31 12:19:29;;;;;;;;;;;26.80;71.20;;;;;;5076159;28;19917;-56
2022/07/31 12:21:54;;;;;;;;;;;26.80;71.20;;;;;;5075197;28;19924;-57
2022/07/31 12:24:20;;;;;;;;;;;26.70;69.70;;;;;;5062580;28;19917;-51
2022/07/31 12:26:58;;;;;;;;;;;26.60;69.70;;;;;;5069206;28;19917;-53
2022/07/31 12:29:30;;;;;;;;;;;26.70;70.40;;;;;;5070718;28;19908;-53
2022/07/31 12:31:57;;;;;;;;;;;26.80;69.50;;;;;;5068891;28;19912;-51
2022/07/31 12:34:39;;;;;;;;;;;26.80;69.90;;;;;;5072900;28;19920;-54
2022/07/31 12:37:05;;;;;;;;;;;26.70;69.20;;;;;;5071443;28;19919;-49
2022/07/31 12:39:33;;;;;;;;;;;26.80;69.10;;;;;;5072386;28;19917;-54
2022/07/31 12:41:58;;;;;;;;;;;26.90;70.10;;;;;;5071745;28;19931;-54
2022/07/31 12:44:24;;;;;;;;;;;26.70;69.80;;;;;;5074788;28;19912;-49
2022/07/31 12:46:50;;;;;;;;;;;26.90;69.90;;;;;;5071947;28;20012;-50
2022/07/31 12:49:16;;;;;;;;;;;27.00;69.80;;;;;;5073038;28;20330;-53
2022/07/31 12:51:42;;;;;;;;;;;27.20;68.10;;;;;;5072277;28;19916;-53
2022/07/31 12:54:08;;;;;;;;;;;27.50;68.10;;;;;;5082574;28;19978;-51
2022/07/31 12:56:38;;;;;;;;;;;27.60;68.30;;;;;;5087688;28;19922;-53
2022/07/31 12:59:04;;;;;;;;;;;27.70;68.40;;;;;;5082683;28;19916;-50
2022/07/31 13:01:30;;;;;;;;;;;27.60;67.70;;;;;;5093161;28;20432;-56
2022/07/31 13:03:57;;;;;;;;;;;27.60;67.50;;;;;;5074746;28;19916;-54
2022/07/31 13:06:23;;;;;;;;;;;27.50;67.90;;;;;;5072309;28;19916;-55
2022/07/31 13:08:49;;;;;;;;;;;27.80;67.50;;;;;;5087481;28;20371;-50
2022/07/31 13:11:14;;;;;;;;;;;27.70;67.30;;;;;;5087133;28;19923;-52
2022/07/31 13:13:40;;;;;;;;;;;27.80;67.00;;;;;;5067623;28;20018;-51
2022/07/31 13:16:05;;;;;;;;;;;27.90;67.60;;;;;;5072701;28;20472;-51
2022/07/31 13:18:32;;;;;;;;;;;28.00;68.00;;;;;;5071760;28;20387;-51
2022/07/31 13:20:59;;;;;;;;;;;28.20;67.50;;;;;;5081611;28;19969;-53
2022/07/31 13:23:24;;;;;;;;;;;28.30;67.70;;;;;;5092629;28;19908;-48
2022/07/31 13:25:50;;;;;;;;;;;28.20;68.70;;;;;;5083589;28;19962;-53
2022/07/31 13:28:15;;;;;;;;;;;28.00;67.90;;;;;;5071259;28;19924;-49
2022/07/31 13:30:41;;;;;;;;;;;28.10;68.40;;;;;;5072078;28;19978;-53
2022/07/31 13:33:06;;;;;;;;;;;28.50;68.60;;;;;;5072425;28;19908;-53
2022/07/31 13:35:33;;;;;;;;;;;28.70;67.00;;;;;;5071360;28;19916;-52
2022/07/31 13:37:58;;;;;;;;;;;28.90;66.30;;;;;;5069288;28;19916;-53
2022/07/31 13:43:11;;;;;;;;;;;28.60;65.70;;;;;;5053886;28;20044;-52
2022/07/31 13:45:37;;;;;;;;;;;28.60;65.80;;;;;;5071291;28;20472;-51
2022/07/31 13:48:03;;;;;;;;;;;28.60;66.00;;;;;;5072443;28;20019;-48
2022/07/31 13:50:28;;;;;;;;;;;28.90;66.10;;;;;;5072251;28;19913;-50
2022/07/31 13:52:56;;;;;;;;;;;28.90;66.70;;;;;;5074282;28;19912;-51
2022/07/31 13:55:22;;;;;;;;;;;29.00;65.90;;;;;;5067349;28;19944;-49
2022/07/31 13:57:47;;;;;;;;;;;28.60;65.30;;;;;;5074023;28;20367;-55
2022/07/31 14:00:13;;;;;;;;;;;28.70;64.80;;;;;;5070698;28;19920;-48
2022/07/31 14:02:40;;;;;;;;;;;28.70;65.50;;;;;;5071713;28;19924;-50
2022/07/31 14:05:05;;;;;;;;;;;28.60;66.30;;;;;;5051594;28;20000;-49
2022/07/31 14:07:36;;;;;;;;;;;28.20;66.70;;;;;;5052859;28;19952;-53
2022/07/31 14:10:05;;;;;;;;;;;28.10;66.40;;;;;;5092507;28;19995;-52
2022/07/31 14:12:31;;;;;;;;;;;28.10;66.60;;;;;;5081030;28;20012;-52
2022/07/31 14:14:56;;;;;;;;;;;28.20;67.30;;;;;;5084419;28;20352;-50
2022/07/31 14:17:22;;;;;;;;;;;28.50;66.90;;;;;;5069739;28;19909;-53
2022/07/31 14:19:48;;;;;;;;;;;28.30;67.00;;;;;;5059364;28;19916;-49